Hamnavoe — VSTY7 — position and weather

sailwx.info

Track history (hours):
 
Tides and Currents Weather Stations Pressure Air Temp Water Temp Dewpoint Dewpoint Depression Visibility Wind Speed Wind Dir Waves Ship Positions

Hamnavoe

Operator: NorthLink Orkey & Shetland Ferries Ltd

Last reported at 2015-Feb-28 13:33 UTC. Time now 2015-Feb-28 14:00 UTC.
Position N 58°58' W 003°18'.

Length 112 m; draft 4.2 m.

Type: Ship. MMSI: 235449000.

Date/timePositionNaut miles runAvg speedWind from/ knotsBaromVisibWave heightAir tempDewpointWater temp
2015-Feb-28 13:33N 58°58' W 003°18'1111.0
2015-Feb-28 12:33N 58°48' W 003°29'1211.7
2015-Feb-28 11:33N 58°37' W 003°32'0 0.0
2015-Feb-28 10:33N 58°37' W 003°32'1515.2
2015-Feb-28 09:33N 58°52' W 003°28'8 8.2
2015-Feb-28 08:33N 58°58' W 003°18'0 0.0
2015-Feb-28 07:33N 58°58' W 003°18'0 0.0
2015-Feb-28 06:33N 58°58' W 003°18'0 0.0
2015-Feb-28 05:33N 58°58' W 003°18'0 0.0
2015-Feb-28 04:33N 58°58' W 003°18'0 0.0
2015-Feb-28 03:33N 58°58' W 003°18'0 0.0
2015-Feb-28 02:33N 58°58' W 003°18'0 0.0
2015-Feb-28 01:33N 58°58' W 003°18'0 0.0
2015-Feb-28 00:33N 58°58' W 003°18'0 0.0
2015-Feb-27 23:33N 58°58' W 003°18'0 0.0
2015-Feb-27 22:33N 58°58' W 003°18'0 0.0
2015-Feb-27 21:33N 58°58' W 003°18'0 0.0
2015-Feb-27 20:33N 58°58' W 003°18'0 0.0
2015-Feb-27 19:33N 58°58' W 003°18'0 0.0
2015-Feb-27 18:33N 58°58' W 003°18'0 0.0
2015-Feb-27 17:33N 58°58' W 003°18'0 0.0
2015-Feb-27 16:33N 58°58' W 003°18'0 0.0
2015-Feb-27 15:33N 58°58' W 003°18'0 0.0
2015-Feb-27 14:33N 58°58' W 003°18'0 0.0
2015-Feb-27 13:33N 58°58' W 003°18'0 0.0
2015-Feb-27 12:33N 58°58' W 003°18'0 0.0
2015-Feb-27 11:33N 58°58' W 003°18'5 4.7
2015-Feb-27 10:34N 58°54' W 003°13'1211.5
2015-Feb-27 09:33N 58°43' W 003°22'9 8.5
2015-Feb-27 08:33N 58°37' W 003°32'1111.4
2015-Feb-27 07:33N 58°48' W 003°33'1111.5
2015-Feb-27 06:33N 58°57' W 003°18'1 1.0
2015-Feb-27 05:33N 58°58' W 003°18'0 0.0
2015-Feb-27 04:34N 58°58' W 003°18'0 0.0
2015-Feb-27 03:34N 58°58' W 003°18'0 0.0
2015-Feb-27 02:33N 58°58' W 003°18'0 0.0
2015-Feb-27 01:33N 58°58' W 003°18'0 0.0
2015-Feb-27 00:33N 58°58' W 003°18'0 0.0
2015-Feb-26 23:33N 58°58' W 003°18'0 0.0
2015-Feb-26 22:33N 58°58' W 003°18'0 0.0
2015-Feb-26 21:34N 58°58' W 003°18'4 3.6
2015-Feb-26 20:33N 58°55' W 003°14'1312.9
2015-Feb-26 19:33N 58°42' W 003°20'8 8.4
2015-Feb-26 18:33N 58°37' W 003°32'1414.3
2015-Feb-26 17:33N 58°51' W 003°30'10 9.7
2015-Feb-26 16:33N 58°58' W 003°18'0 0.0
2015-Feb-26 15:33N 58°58' W 003°18'0 0.0
2015-Feb-26 14:33N 58°58' W 003°18'0 0.0
2015-Feb-26 13:33N 58°58' W 003°18'0 0.0
2015-Feb-26 12:33N 58°58' W 003°18'0 0.0
2015-Feb-26 11:33N 58°58' W 003°18'0 0.0
2015-Feb-26 10:33N 58°58' W 003°18'8 8.4
2015-Feb-26 09:33N 58°52' W 003°29'1515.3
2015-Feb-26 08:33N 58°37' W 003°32'7 6.7
2015-Feb-26 07:33N 58°43' W 003°30'1514.8
2015-Feb-26 06:33N 58°57' W 003°19'1 1.2
2015-Feb-26 05:31N 58°58' W 003°18'0 0.0
2015-Feb-26 04:31N 58°58' W 003°18'0 0.0
2015-Feb-26 03:31N 58°58' W 003°18'0 0.0
2015-Feb-26 02:19N 58°58' W 003°18'0 0.0
2015-Feb-26 01:31N 58°58' W 003°18'0 0.0
2015-Feb-26 00:31N 58°58' W 003°18'0 0.0
2015-Feb-25 23:31N 58°58' W 003°18'0 0.0
2015-Feb-25 22:31N 58°58' W 003°18'0 0.0
2015-Feb-25 21:31N 58°58' W 003°18'0 0.0
2015-Feb-25 20:32N 58°58' W 003°18'1212.1
2015-Feb-25 19:33N 58°48' W 003°30'1110.6
2015-Feb-25 18:31N 58°37' W 003°32'1212.2
2015-Feb-25 17:33N 58°48' W 003°29'1111.1
2015-Feb-25 16:32N 58°58' W 003°18'0 0.0
2015-Feb-25 15:32N 58°58' W 003°18'0 0.0
2015-Feb-25 12:32N 58°58' W 003°18'0 0.0
2015-Feb-25 11:32N 58°58' W 003°18'0 0.0
2015-Feb-25 10:32N 58°58' W 003°18'9 9.5
2015-Feb-25 09:33N 58°51' W 003°29'1413.9
2015-Feb-25 08:33N 58°37' W 003°32'8 7.6
2015-Feb-25 07:33N 58°44' W 003°33'1514.8
2015-Feb-25 06:33N 58°57' W 003°18'1 1.0
2015-Feb-25 05:33N 58°58' W 003°18'0 0.0
2015-Feb-25 04:33N 58°58' W 003°18'0 0.0
2015-Feb-25 03:33N 58°58' W 003°18'0 0.0
2015-Feb-25 02:33N 58°58' W 003°18'0 0.0
2015-Feb-25 01:33N 58°58' W 003°18'0 0.0
2015-Feb-25 00:33N 58°58' W 003°18'0 0.0
2015-Feb-24 23:33N 58°58' W 003°18'0 0.0
2015-Feb-24 22:30N 58°58' W 003°18'0 0.0
2015-Feb-24 21:33N 58°58' W 003°18'9 8.9
2015-Feb-24 20:33N 58°50' W 003°10'1212.3
2015-Feb-24 19:34N 58°40' W 003°25'5 5.3
2015-Feb-24 18:33N 58°37' W 003°32'1414.2
2015-Feb-24 17:33N 58°51' W 003°32'1010.1
2015-Feb-24 16:34N 58°58' W 003°18'0 0.0
2015-Feb-24 15:34N 58°58' W 003°18'0 0.0
2015-Feb-24 14:33N 58°58' W 003°18'0 0.0
2015-Feb-24 13:30N 58°58' W 003°18'0 0.0
2015-Feb-24 12:33N 58°58' W 003°18'0 0.0
2015-Feb-24 11:33N 58°58' W 003°18'0 0.0
2015-Feb-24 10:33N 58°58' W 003°18'1212.2
2015-Feb-24 09:33N 58°47' W 003°07'1716.5
2015-Feb-24 08:33N 58°37' W 003°32'8 7.6
2015-Feb-24 07:33N 58°44' W 003°32'1414.1
2015-Feb-24 06:33N 58°57' W 003°19'1 1.2
2015-Feb-24 05:31N 58°58' W 003°18'0 0.0
2015-Feb-24 04:31N 58°58' W 003°18'0 0.0
2015-Feb-24 03:31N 58°58' W 003°18'0 0.0
2015-Feb-24 02:31N 58°58' W 003°18'0 0.0
2015-Feb-24 01:31N 58°58' W 003°18'0 0.0
2015-Feb-24 00:31N 58°58' W 003°18'0 0.0
2015-Feb-23 23:31N 58°58' W 003°18'0 0.0
2015-Feb-23 22:31N 58°58' W 003°18'0 0.0
2015-Feb-23 21:31N 58°58' W 003°18'0 0.0
2015-Feb-23 20:33N 58°58' W 003°18'1211.5
2015-Feb-23 19:33N 58°48' W 003°31'1211.9
2015-Feb-23 18:34N 58°37' W 003°32'1110.6
2015-Feb-23 17:33N 58°47' W 003°30'12 6.1
2015-Feb-23 15:31N 58°58' W 003°18'0 0.0
2015-Feb-23 14:31N 58°58' W 003°18'0 0.0
2015-Feb-23 13:31N 58°58' W 003°18'0 0.0
2015-Feb-23 12:28N 58°58' W 003°18'0 0.0
2015-Feb-23 11:28N 58°58' W 003°18'0 0.0
2015-Feb-23 10:28N 58°58' W 003°18'8 8.3
2015-Feb-23 09:33N 58°52' W 003°28'1615.8
2015-Feb-23 08:33N 58°37' W 003°32'7 7.1
2015-Feb-23 07:33N 58°44' W 003°30'1514.8
2015-Feb-23 06:33N 58°57' W 003°18'1 0.9
2015-Feb-23 05:33N 58°58' W 003°18'0 0.0
2015-Feb-23 04:24N 58°58' W 003°18'0 0.0
2015-Feb-23 03:30N 58°58' W 003°18'0 0.0
2015-Feb-23 02:33N 58°58' W 003°18'0 0.0
2015-Feb-23 01:33N 58°58' W 003°18'0 0.0
2015-Feb-23 00:33N 58°58' W 003°18'0 0.0
2015-Feb-22 23:33N 58°58' W 003°18'0 0.0
2015-Feb-22 22:33N 58°58' W 003°18'0 0.0
2015-Feb-22 21:33N 58°58' W 003°18'0 0.0
2015-Feb-22 20:33N 58°58' W 003°18'1111.3
2015-Feb-22 19:33N 58°48' W 003°30'1211.7
2015-Feb-22 18:33N 58°37' W 003°32'1010.4
2015-Feb-22 17:33N 58°47' W 003°30'13 6.2
2015-Feb-22 15:33N 58°58' W 003°18'0 0.0
2015-Feb-22 14:33N 58°58' W 003°18'0 0.0
2015-Feb-22 13:33N 58°58' W 003°18'1212.0
2015-Feb-22 12:32N 58°46' W 003°13'1313.7
2015-Feb-22 11:33N 58°37' W 003°32'1 1.0
2015-Feb-22 10:28N 58°38' W 003°31'1617.4
2015-Feb-22 09:33N 58°53' W 003°28'7 6.7
2015-Feb-22 08:33N 58°58' W 003°18'0 0.0
2015-Feb-22 07:33N 58°58' W 003°18'0 0.0
2015-Feb-22 06:24N 58°58' W 003°18'0 0.0
2015-Feb-22 05:33N 58°58' W 003°18'0 0.0
2015-Feb-22 04:30N 58°58' W 003°18'0 0.0
2015-Feb-22 03:30N 58°58' W 003°18'0 0.0
2015-Feb-22 02:24N 58°58' W 003°18'0 0.0
2015-Feb-22 01:33N 58°58' W 003°18'0 0.0
2015-Feb-22 00:33N 58°58' W 003°18'0 0.0
2015-Feb-21 23:33N 58°58' W 003°18'0 0.0
2015-Feb-21 22:33N 58°58' W 003°18'0 0.0
2015-Feb-21 21:18N 58°58' W 003°18'1 1.8
2015-Feb-21 20:33N 58°57' W 003°16'1515.2
2015-Feb-21 19:33N 58°42' W 003°10'1311.2
2015-Feb-21 18:24N 58°37' W 003°32'1214.2
2015-Feb-21 17:33N 58°49' W 003°30'1111.1
2015-Feb-21 16:33N 58°58' W 003°18'0 0.0
2015-Feb-21 15:32N 58°58' W 003°18'0 0.0
2015-Feb-21 14:32N 58°58' W 003°18'3 3.4
2015-Feb-21 13:33N 58°55' W 003°14'1212.2
2015-Feb-21 12:33N 58°43' W 003°21'9 8.9
2015-Feb-21 11:33N 58°37' W 003°32'1616.6
2015-Feb-21 10:33N 58°53' W 003°29'7 7.1
2015-Feb-21 09:31N 58°58' W 003°18'0 0.0
2015-Feb-21 08:31N 58°58' W 003°18'0 0.0
2015-Feb-21 07:31N 58°58' W 003°18'0 0.0
2015-Feb-21 06:31N 58°58' W 003°18'0 0.0
2015-Feb-21 05:31N 58°58' W 003°18'0 0.0
2015-Feb-21 04:31N 58°58' W 003°18'0 0.0
2015-Feb-21 03:31N 58°58' W 003°18'0 0.0
2015-Feb-21 02:31N 58°58' W 003°18'0 0.0
2015-Feb-21 01:31N 58°58' W 003°18'0 0.0
2015-Feb-21 00:31N 58°58' W 003°18'0 0.0
2015-Feb-20 23:31N 58°58' W 003°18'0 0.0
2015-Feb-20 22:31N 58°58' W 003°18'0 0.0
2015-Feb-20 21:31N 58°58' W 003°18'0 0.0
2015-Feb-20 20:33N 58°58' W 003°18'1413.6
2015-Feb-20 19:33N 58°46' W 003°30'9 9.0
2015-Feb-20 18:32N 58°37' W 003°32'1313.1
2015-Feb-20 17:33N 58°49' W 003°30'1110.6
2015-Feb-20 16:33N 58°58' W 003°18'0 0.0
2015-Feb-20 15:31N 58°58' W 003°18'0 0.0
2015-Feb-20 14:31N 58°58' W 003°18'0 0.0
2015-Feb-20 13:31N 58°58' W 003°18'0 0.0
2015-Feb-20 12:31N 58°58' W 003°18'0 0.0
2015-Feb-20 11:31N 58°58' W 003°18'0 0.0
2015-Feb-20 10:32N 58°58' W 003°18'1212.5
2015-Feb-20 09:33N 58°47' W 003°08'1616.0
2015-Feb-20 08:33N 58°37' W 003°32'1010.1
2015-Feb-20 07:33N 58°47' W 003°33'1313.3
2015-Feb-20 06:33N 58°57' W 003°18'0 0.4
2015-Feb-20 05:26N 58°58' W 003°18'0 0.0
2015-Feb-20 04:32N 58°58' W 003°18'0 0.0
2015-Feb-20 03:32N 58°58' W 003°18'0 0.0
2015-Feb-20 02:32N 58°58' W 003°18'0 0.0
2015-Feb-20 01:32N 58°58' W 003°18'0 0.0
2015-Feb-20 00:32N 58°58' W 003°18'0 0.0
2015-Feb-19 23:32N 58°58' W 003°18'0 0.0
2015-Feb-19 22:32N 58°58' W 003°18'0 0.0
2015-Feb-19 21:32N 58°58' W 003°18'0 0.0
2015-Feb-19 20:33N 58°58' W 003°18'1313.4
2015-Feb-19 19:33N 58°45' W 003°15'1211.9
2015-Feb-19 18:32N 58°37' W 003°32'1212.8
2015-Feb-19 17:34N 58°49' W 003°30'1110.7
2015-Feb-19 16:33N 58°58' W 003°18'0 0.0
2015-Feb-19 15:28N 58°58' W 003°18'0 0.0
2015-Feb-19 14:31N 58°58' W 003°18'0 0.0
2015-Feb-19 13:31N 58°58' W 003°18'0 0.0
2015-Feb-19 12:31N 58°58' W 003°18'0 0.0
2015-Feb-19 11:28N 58°58' W 003°18'0 0.0
2015-Feb-19 10:28N 58°58' W 003°18'910.0
2015-Feb-19 09:33N 58°51' W 003°29'1414.4
2015-Feb-19 08:33N 58°37' W 003°32'10 9.8
2015-Feb-19 07:33N 58°46' W 003°30'1312.9
2015-Feb-19 06:33N 58°58' W 003°18'0 0.2
2015-Feb-19 05:33N 58°58' W 003°18'0 0.0
2015-Feb-19 04:24N 58°58' W 003°18'0 0.0
2015-Feb-19 03:30N 58°58' W 003°18'0 0.0
2015-Feb-19 02:30N 58°58' W 003°18'0 0.0
2015-Feb-19 01:30N 58°58' W 003°18'0 0.0
2015-Feb-19 00:33N 58°58' W 003°18'0 0.0
2015-Feb-18 23:33N 58°58' W 003°18'0 0.0
2015-Feb-18 22:33N 58°58' W 003°18'0 0.0
2015-Feb-18 21:33N 58°58' W 003°18'0 0.0
2015-Feb-18 20:33N 58°58' W 003°18'1413.5
2015-Feb-18 19:33N 58°46' W 003°30'9 9.3
2015-Feb-18 18:33N 58°37' W 003°32'1514.7
2015-Feb-18 17:33N 58°51' W 003°30'9 9.1
2015-Feb-18 16:33N 58°58' W 003°18'0 0.0
2015-Feb-18 15:33N 58°58' W 003°18'0 0.0
2015-Feb-18 14:33N 58°58' W 003°18'  
Track history (hours):
 
Tides and Currents Weather Stations Pressure Air Temp Water Temp Dewpoint Dewpoint Depression Visibility Wind Speed Wind Dir Waves Ship Positions

Hamnavoe

Operator: NorthLink Orkey & Shetland Ferries Ltd

Last reported at 2015-Feb-28 13:33 UTC. Time now 2015-Feb-28 14:00 UTC.
Position N 58°58' W 003°18'.

Length 112 m; draft 4.2 m.

Type: Ship. MMSI: 235449000.

Date/timePositionNaut miles runAvg speedWind from/ knotsBaromVisibWave heightAir tempDewpointWater temp
2015-Feb-28 13:33N 58°58' W 003°18'1111.0
2015-Feb-28 12:33N 58°48' W 003°29'1211.7
2015-Feb-28 11:33N 58°37' W 003°32'0 0.0
2015-Feb-28 10:33N 58°37' W 003°32'1515.2
2015-Feb-28 09:33N 58°52' W 003°28'8 8.2
2015-Feb-28 08:33N 58°58' W 003°18'0 0.0
2015-Feb-28 07:33N 58°58' W 003°18'0 0.0
2015-Feb-28 06:33N 58°58' W 003°18'0 0.0
2015-Feb-28 05:33N 58°58' W 003°18'0 0.0
2015-Feb-28 04:33N 58°58' W 003°18'0 0.0
2015-Feb-28 03:33N 58°58' W 003°18'0 0.0
2015-Feb-28 02:33N 58°58' W 003°18'0 0.0
2015-Feb-28 01:33N 58°58' W 003°18'0 0.0
2015-Feb-28 00:33N 58°58' W 003°18'0 0.0
2015-Feb-27 23:33N 58°58' W 003°18'0 0.0
2015-Feb-27 22:33N 58°58' W 003°18'0 0.0
2015-Feb-27 21:33N 58°58' W 003°18'0 0.0
2015-Feb-27 20:33N 58°58' W 003°18'0 0.0
2015-Feb-27 19:33N 58°58' W 003°18'0 0.0
2015-Feb-27 18:33N 58°58' W 003°18'0 0.0
2015-Feb-27 17:33N 58°58' W 003°18'0 0.0
2015-Feb-27 16:33N 58°58' W 003°18'0 0.0
2015-Feb-27 15:33N 58°58' W 003°18'0 0.0
2015-Feb-27 14:33N 58°58' W 003°18'0 0.0
2015-Feb-27 13:33N 58°58' W 003°18'0 0.0
2015-Feb-27 12:33N 58°58' W 003°18'0 0.0
2015-Feb-27 11:33N 58°58' W 003°18'5 4.7
2015-Feb-27 10:34N 58°54' W 003°13'1211.5
2015-Feb-27 09:33N 58°43' W 003°22'9 8.5
2015-Feb-27 08:33N 58°37' W 003°32'1111.4
2015-Feb-27 07:33N 58°48' W 003°33'1111.5
2015-Feb-27 06:33N 58°57' W 003°18'1 1.0
2015-Feb-27 05:33N 58°58' W 003°18'0 0.0
2015-Feb-27 04:34N 58°58' W 003°18'0 0.0
2015-Feb-27 03:34N 58°58' W 003°18'0 0.0
2015-Feb-27 02:33N 58°58' W 003°18'0 0.0
2015-Feb-27 01:33N 58°58' W 003°18'0 0.0
2015-Feb-27 00:33N 58°58' W 003°18'0 0.0
2015-Feb-26 23:33N 58°58' W 003°18'0 0.0
2015-Feb-26 22:33N 58°58' W 003°18'0 0.0
2015-Feb-26 21:34N 58°58' W 003°18'4 3.6
2015-Feb-26 20:33N 58°55' W 003°14'1312.9
2015-Feb-26 19:33N 58°42' W 003°20'8 8.4
2015-Feb-26 18:33N 58°37' W 003°32'1414.3
2015-Feb-26 17:33N 58°51' W 003°30'10 9.7
2015-Feb-26 16:33N 58°58' W 003°18'0 0.0
2015-Feb-26 15:33N 58°58' W 003°18'0 0.0
2015-Feb-26 14:33N 58°58' W 003°18'0 0.0
2015-Feb-26 13:33N 58°58' W 003°18'0 0.0
2015-Feb-26 12:33N 58°58' W 003°18'0 0.0
2015-Feb-26 11:33N 58°58' W 003°18'0 0.0
2015-Feb-26 10:33N 58°58' W 003°18'8 8.4
2015-Feb-26 09:33N 58°52' W 003°29'1515.3
2015-Feb-26 08:33N 58°37' W 003°32'7 6.7
2015-Feb-26 07:33N 58°43' W 003°30'1514.8
2015-Feb-26 06:33N 58°57' W 003°19'1 1.2
2015-Feb-26 05:31N 58°58' W 003°18'0 0.0
2015-Feb-26 04:31N 58°58' W 003°18'0 0.0
2015-Feb-26 03:31N 58°58' W 003°18'0 0.0
2015-Feb-26 02:19N 58°58' W 003°18'0 0.0
2015-Feb-26 01:31N 58°58' W 003°18'0 0.0
2015-Feb-26 00:31N 58°58' W 003°18'0 0.0
2015-Feb-25 23:31N 58°58' W 003°18'0 0.0
2015-Feb-25 22:31N 58°58' W 003°18'0 0.0
2015-Feb-25 21:31N 58°58' W 003°18'0 0.0
2015-Feb-25 20:32N 58°58' W 003°18'1212.1
2015-Feb-25 19:33N 58°48' W 003°30'1110.6
2015-Feb-25 18:31N 58°37' W 003°32'1212.2
2015-Feb-25 17:33N 58°48' W 003°29'1111.1
2015-Feb-25 16:32N 58°58' W 003°18'0 0.0
2015-Feb-25 15:32N 58°58' W 003°18'0 0.0
2015-Feb-25 12:32N 58°58' W 003°18'0 0.0
2015-Feb-25 11:32N 58°58' W 003°18'0 0.0
2015-Feb-25 10:32N 58°58' W 003°18'9 9.5
2015-Feb-25 09:33N 58°51' W 003°29'1413.9
2015-Feb-25 08:33N 58°37' W 003°32'8 7.6
2015-Feb-25 07:33N 58°44' W 003°33'1514.8
2015-Feb-25 06:33N 58°57' W 003°18'1 1.0
2015-Feb-25 05:33N 58°58' W 003°18'0 0.0
2015-Feb-25 04:33N 58°58' W 003°18'0 0.0
2015-Feb-25 03:33N 58°58' W 003°18'0 0.0
2015-Feb-25 02:33N 58°58' W 003°18'0 0.0
2015-Feb-25 01:33N 58°58' W 003°18'0 0.0
2015-Feb-25 00:33N 58°58' W 003°18'0 0.0
2015-Feb-24 23:33N 58°58' W 003°18'0 0.0
2015-Feb-24 22:30N 58°58' W 003°18'0 0.0
2015-Feb-24 21:33N 58°58' W 003°18'9 8.9
2015-Feb-24 20:33N 58°50' W 003°10'1212.3
2015-Feb-24 19:34N 58°40' W 003°25'5 5.3
2015-Feb-24 18:33N 58°37' W 003°32'1414.2
2015-Feb-24 17:33N 58°51' W 003°32'1010.1
2015-Feb-24 16:34N 58°58' W 003°18'0 0.0
2015-Feb-24 15:34N 58°58' W 003°18'0 0.0
2015-Feb-24 14:33N 58°58' W 003°18'0 0.0
2015-Feb-24 13:30N 58°58' W 003°18'0 0.0
2015-Feb-24 12:33N 58°58' W 003°18'0 0.0
2015-Feb-24 11:33N 58°58' W 003°18'0 0.0
2015-Feb-24 10:33N 58°58' W 003°18'1212.2
2015-Feb-24 09:33N 58°47' W 003°07'1716.5
2015-Feb-24 08:33N 58°37' W 003°32'8 7.6
2015-Feb-24 07:33N 58°44' W 003°32'1414.1
2015-Feb-24 06:33N 58°57' W 003°19'1 1.2
2015-Feb-24 05:31N 58°58' W 003°18'0 0.0
2015-Feb-24 04:31N 58°58' W 003°18'0 0.0
2015-Feb-24 03:31N 58°58' W 003°18'0 0.0
2015-Feb-24 02:31N 58°58' W 003°18'0 0.0
2015-Feb-24 01:31N 58°58' W 003°18'0 0.0
2015-Feb-24 00:31N 58°58' W 003°18'0 0.0
2015-Feb-23 23:31N 58°58' W 003°18'0 0.0
2015-Feb-23 22:31N 58°58' W 003°18'0 0.0
2015-Feb-23 21:31N 58°58' W 003°18'0 0.0
2015-Feb-23 20:33N 58°58' W 003°18'1211.5
2015-Feb-23 19:33N 58°48' W 003°31'1211.9
2015-Feb-23 18:34N 58°37' W 003°32'1110.6
2015-Feb-23 17:33N 58°47' W 003°30'12 6.1
2015-Feb-23 15:31N 58°58' W 003°18'0 0.0
2015-Feb-23 14:31N 58°58' W 003°18'0 0.0
2015-Feb-23 13:31N 58°58' W 003°18'0 0.0
2015-Feb-23 12:28N 58°58' W 003°18'0 0.0
2015-Feb-23 11:28N 58°58' W 003°18'0 0.0
2015-Feb-23 10:28N 58°58' W 003°18'8 8.3
2015-Feb-23 09:33N 58°52' W 003°28'1615.8
2015-Feb-23 08:33N 58°37' W 003°32'7 7.1
2015-Feb-23 07:33N 58°44' W 003°30'1514.8
2015-Feb-23 06:33N 58°57' W 003°18'1 0.9
2015-Feb-23 05:33N 58°58' W 003°18'0 0.0
2015-Feb-23 04:24N 58°58' W 003°18'0 0.0
2015-Feb-23 03:30N 58°58' W 003°18'0 0.0
2015-Feb-23 02:33N 58°58' W 003°18'0 0.0
2015-Feb-23 01:33N 58°58' W 003°18'0 0.0
2015-Feb-23 00:33N 58°58' W 003°18'0 0.0
2015-Feb-22 23:33N 58°58' W 003°18'0 0.0
2015-Feb-22 22:33N 58°58' W 003°18'0 0.0
2015-Feb-22 21:33N 58°58' W 003°18'0 0.0
2015-Feb-22 20:33N 58°58' W 003°18'1111.3
2015-Feb-22 19:33N 58°48' W 003°30'1211.7
2015-Feb-22 18:33N 58°37' W 003°32'1010.4
2015-Feb-22 17:33N 58°47' W 003°30'13 6.2
2015-Feb-22 15:33N 58°58' W 003°18'0 0.0
2015-Feb-22 14:33N 58°58' W 003°18'0 0.0
2015-Feb-22 13:33N 58°58' W 003°18'1212.0
2015-Feb-22 12:32N 58°46' W 003°13'1313.7
2015-Feb-22 11:33N 58°37' W 003°32'1 1.0
2015-Feb-22 10:28N 58°38' W 003°31'1617.4
2015-Feb-22 09:33N 58°53' W 003°28'7 6.7
2015-Feb-22 08:33N 58°58' W 003°18'0 0.0
2015-Feb-22 07:33N 58°58' W 003°18'0 0.0
2015-Feb-22 06:24N 58°58' W 003°18'0 0.0
2015-Feb-22 05:33N 58°58' W 003°18'0 0.0
2015-Feb-22 04:30N 58°58' W 003°18'0 0.0
2015-Feb-22 03:30N 58°58' W 003°18'0 0.0
2015-Feb-22 02:24N 58°58' W 003°18'0 0.0
2015-Feb-22 01:33N 58°58' W 003°18'0 0.0
2015-Feb-22 00:33N 58°58' W 003°18'0 0.0
2015-Feb-21 23:33N 58°58' W 003°18'0 0.0
2015-Feb-21 22:33N 58°58' W 003°18'0 0.0
2015-Feb-21 21:18N 58°58' W 003°18'1 1.8
2015-Feb-21 20:33N 58°57' W 003°16'1515.2
2015-Feb-21 19:33N 58°42' W 003°10'1311.2
2015-Feb-21 18:24N 58°37' W 003°32'1214.2
2015-Feb-21 17:33N 58°49' W 003°30'1111.1
2015-Feb-21 16:33N 58°58' W 003°18'0 0.0
2015-Feb-21 15:32N 58°58' W 003°18'0 0.0
2015-Feb-21 14:32N 58°58' W 003°18'3 3.4
2015-Feb-21 13:33N 58°55' W 003°14'1212.2
2015-Feb-21 12:33N 58°43' W 003°21'9 8.9
2015-Feb-21 11:33N 58°37' W 003°32'1616.6
2015-Feb-21 10:33N 58°53' W 003°29'7 7.1
2015-Feb-21 09:31N 58°58' W 003°18'0 0.0
2015-Feb-21 08:31N 58°58' W 003°18'0 0.0
2015-Feb-21 07:31N 58°58' W 003°18'0 0.0
2015-Feb-21 06:31N 58°58' W 003°18'0 0.0
2015-Feb-21 05:31N 58°58' W 003°18'0 0.0
2015-Feb-21 04:31N 58°58' W 003°18'0 0.0
2015-Feb-21 03:31N 58°58' W 003°18'0 0.0
2015-Feb-21 02:31N 58°58' W 003°18'0 0.0
2015-Feb-21 01:31N 58°58' W 003°18'0 0.0
2015-Feb-21 00:31N 58°58' W 003°18'0 0.0
2015-Feb-20 23:31N 58°58' W 003°18'0 0.0
2015-Feb-20 22:31N 58°58' W 003°18'0 0.0
2015-Feb-20 21:31N 58°58' W 003°18'0 0.0
2015-Feb-20 20:33N 58°58' W 003°18'1413.6
2015-Feb-20 19:33N 58°46' W 003°30'9 9.0
2015-Feb-20 18:32N 58°37' W 003°32'1313.1
2015-Feb-20 17:33N 58°49' W 003°30'1110.6
2015-Feb-20 16:33N 58°58' W 003°18'0 0.0
2015-Feb-20 15:31N 58°58' W 003°18'0 0.0
2015-Feb-20 14:31N 58°58' W 003°18'0 0.0
2015-Feb-20 13:31N 58°58' W 003°18'0 0.0
2015-Feb-20 12:31N 58°58' W 003°18'0 0.0
2015-Feb-20 11:31N 58°58' W 003°18'0 0.0
2015-Feb-20 10:32N 58°58' W 003°18'1212.5
2015-Feb-20 09:33N 58°47' W 003°08'1616.0
2015-Feb-20 08:33N 58°37' W 003°32'1010.1
2015-Feb-20 07:33N 58°47' W 003°33'1313.3
2015-Feb-20 06:33N 58°57' W 003°18'0 0.4
2015-Feb-20 05:26N 58°58' W 003°18'0 0.0
2015-Feb-20 04:32N 58°58' W 003°18'0 0.0
2015-Feb-20 03:32N 58°58' W 003°18'0 0.0
2015-Feb-20 02:32N 58°58' W 003°18'0 0.0
2015-Feb-20 01:32N 58°58' W 003°18'0 0.0
2015-Feb-20 00:32N 58°58' W 003°18'0 0.0
2015-Feb-19 23:32N 58°58' W 003°18'0 0.0
2015-Feb-19 22:32N 58°58' W 003°18'0 0.0
2015-Feb-19 21:32N 58°58' W 003°18'0 0.0
2015-Feb-19 20:33N 58°58' W 003°18'1313.4
2015-Feb-19 19:33N 58°45' W 003°15'1211.9
2015-Feb-19 18:32N 58°37' W 003°32'1212.8
2015-Feb-19 17:34N 58°49' W 003°30'1110.7
2015-Feb-19 16:33N 58°58' W 003°18'0 0.0
2015-Feb-19 15:28N 58°58' W 003°18'0 0.0
2015-Feb-19 14:31N 58°58' W 003°18'0 0.0
2015-Feb-19 13:31N 58°58' W 003°18'0 0.0
2015-Feb-19 12:31N 58°58' W 003°18'0 0.0
2015-Feb-19 11:28N 58°58' W 003°18'0 0.0
2015-Feb-19 10:28N 58°58' W 003°18'910.0
2015-Feb-19 09:33N 58°51' W 003°29'1414.4
2015-Feb-19 08:33N 58°37' W 003°32'10 9.8
2015-Feb-19 07:33N 58°46' W 003°30'1312.9
2015-Feb-19 06:33N 58°58' W 003°18'0 0.2
2015-Feb-19 05:33N 58°58' W 003°18'0 0.0
2015-Feb-19 04:24N 58°58' W 003°18'0 0.0
2015-Feb-19 03:30N 58°58' W 003°18'0 0.0
2015-Feb-19 02:30N 58°58' W 003°18'0 0.0
2015-Feb-19 01:30N 58°58' W 003°18'0 0.0
2015-Feb-19 00:33N 58°58' W 003°18'0 0.0
2015-Feb-18 23:33N 58°58' W 003°18'0 0.0
2015-Feb-18 22:33N 58°58' W 003°18'0 0.0
2015-Feb-18 21:33N 58°58' W 003°18'0 0.0
2015-Feb-18 20:33N 58°58' W 003°18'1413.5
2015-Feb-18 19:33N 58°46' W 003°30'9 9.3
2015-Feb-18 18:33N 58°37' W 003°32'1514.7
2015-Feb-18 17:33N 58°51' W 003°30'9 9.1
2015-Feb-18 16:33N 58°58' W 003°18'0 0.0
2015-Feb-18 15:33N 58°58' W 003°18'0 0.0
2015-Feb-18 14:33N 58°58' W 003°18'  

Dump ship's entire track history